Time;durP1;ratioP1;P1;durP2;ratioP2;P2;SDS_P1;SDS_P2;PMS_P1;PMS_P2;Temp;Humidity;BMP_temperature;BMP_pressure;BME280_temperature;BME280_humidity;BME280_pressure;Samples;Min_cycle;Max_cycle;Signal;HPM_P1;HPM_P2
2023/08/02 00:00:06;;;;;;;1.00;0.60;;;;;;;18.64;64.12;98531.84;335534;28;18085;-68
2023/08/02 00:00:18;;;;;;;0.80;0.50;;;;;;;18.67;64.07;98536.88;340108;28;5189;-68
2023/08/02 00:00:33;;;;;;;0.52;0.40;;;;;;;18.65;64.09;98533.53;336807;28;19205;-68
2023/08/02 00:00:45;;;;;;;0.50;0.38;;;;;;;18.67;64.08;98536.88;337093;28;16593;-68
2023/08/02 00:00:57;;;;;;;0.80;0.50;;;;;;;18.70;63.94;98522.59;339060;28;4549;-68
2023/08/02 00:01:09;;;;;;;1.30;0.50;;;;;;;18.69;64.26;98529.69;338668;28;5169;-68
2023/08/02 00:01:21;;;;;;;0.95;0.50;;;;;;;18.70;64.15;98530.50;337235;28;18153;-68
2023/08/02 00:01:33;;;;;;;0.43;0.32;;;;;;;18.72;64.02;98533.84;340431;28;4510;-68
2023/08/02 00:01:47;;;;;;;0.40;0.40;;;;;;;18.74;63.99;98538.00;339771;28;11830;-68
2023/08/02 00:01:59;;;;;;;0.50;0.43;;;;;;;18.70;64.02;98535.75;334959;28;17124;-68
2023/08/02 00:02:12;;;;;;;1.75;0.85;;;;;;;18.70;64.25;98528.69;333933;28;18337;-68
2023/08/02 00:02:24;;;;;;;1.80;0.80;;;;;;;18.72;63.86;98529.41;339754;28;5272;-68
2023/08/02 00:02:38;;;;;;;0.30;0.30;;;;;;;18.73;63.90;98531.09;335990;28;18122;-68
2023/08/02 00:02:50;;;;;;;0.30;0.30;;;;;;;18.74;63.88;98530.09;340166;28;5406;-68
2023/08/02 00:03:02;;;;;;;0.40;0.40;;;;;;;18.75;63.88;98534.41;336840;28;17945;-68
2023/08/02 00:03:14;;;;;;;0.50;0.50;;;;;;;18.75;63.84;98529.16;339384;28;5303;-68
2023/08/02 00:03:27;;;;;;;0.45;0.35;;;;;;;18.76;64.01;98533.44;333097;28;5175;-68
2023/08/02 00:03:39;;;;;;;0.52;0.50;;;;;;;18.77;63.98;98537.75;339379;28;4530;-68
2023/08/02 00:03:51;;;;;;;0.57;0.40;;;;;;;18.76;63.87;98533.44;339262;28;5275;-68
2023/08/02 00:04:21;;;;;;;0.45;0.40;;;;;;;18.81;63.63;98527.81;338770;28;18317;-68
2023/08/02 00:04:33;;;;;;;0.57;0.40;;;;;;;18.81;63.80;98529.63;336192;28;17962;-68
2023/08/02 00:04:45;;;;;;;0.63;0.50;;;;;;;18.79;63.72;98531.50;340298;28;5424;-68
2023/08/02 00:04:58;;;;;;;1.08;0.63;;;;;;;18.79;63.67;98528.88;336652;28;13596;-68
2023/08/02 00:05:10;;;;;;;1.20;0.65;;;;;;;18.80;63.62;98535.88;339219;28;5578;-68
2023/08/02 00:05:22;;;;;;;1.20;0.60;;;;;;;18.80;63.72;98531.41;337319;28;8363;-68
2023/08/02 00:05:34;;;;;;;0.70;0.40;;;;;;;18.82;63.73;98523.41;338138;28;4663;-68
2023/08/02 00:05:55;;;;;;;0.30;0.30;;;;;;;18.82;63.84;98531.31;340050;28;4700;-68
2023/08/02 00:06:07;;;;;;;0.60;0.47;;;;;;;18.81;63.53;98522.53;339816;28;18463;-68
2023/08/02 00:06:19;;;;;;;0.65;0.50;;;;;;;18.82;63.62;98528.66;333273;28;17673;-68
2023/08/02 00:06:31;;;;;;;1.02;0.60;;;;;;;18.81;63.66;98532.25;339902;28;4678;-68
2023/08/02 00:06:43;;;;;;;1.30;0.50;;;;;;;18.83;63.59;98531.16;337247;28;12123;-68
2023/08/02 00:06:56;;;;;;;1.30;0.45;;;;;;;18.84;63.65;98526.75;340089;28;5431;-68
2023/08/02 00:07:08;;;;;;;0.43;0.43;;;;;;;18.85;63.60;98533.66;337700;28;12599;-68
2023/08/02 00:07:20;;;;;;;0.50;0.50;;;;;;;18.87;63.40;98527.28;340196;28;5191;-68
2023/08/02 00:07:32;;;;;;;1.08;0.57;;;;;;;18.87;63.55;98526.47;339632;28;4547;-68
2023/08/02 00:07:44;;;;;;;1.40;0.50;;;;;;;18.85;63.51;98518.69;337641;28;18303;-68
2023/08/02 00:07:56;;;;;;;1.48;0.47;;;;;;;18.81;63.57;98526.97;334728;28;5054;-67
2023/08/02 00:08:08;;;;;;;0.60;0.40;;;;;;;18.76;63.69;98528.19;338584;28;8676;-68
2023/08/02 00:08:21;;;;;;;0.77;0.50;;;;;;;18.75;63.74;98526.53;336970;28;17236;-68
2023/08/02 00:08:34;;;;;;;0.90;0.40;;;;;;;18.78;63.75;98528.06;339112;28;4679;-68
2023/08/02 00:08:46;;;;;;;0.63;0.43;;;;;;;18.80;63.57;98526.16;337364;28;18172;-68
2023/08/02 00:08:58;;;;;;;0.57;0.50;;;;;;;18.80;63.75;98535.88;336437;28;4626;-68
2023/08/02 00:09:10;;;;;;;0.60;0.60;;;;;;;18.80;63.72;98525.34;339072;28;5268;-68
2023/08/02 00:09:22;;;;;;;0.52;0.52;;;;;;;18.81;63.74;98522.53;338925;28;4502;-68
2023/08/02 00:09:34;;;;;;;0.40;0.40;;;;;;;18.82;63.64;98523.41;336364;28;18105;-68
2023/08/02 00:09:46;;;;;;;0.47;0.45;;;;;;;18.83;63.76;98519.78;340392;28;4519;-68
2023/08/02 00:09:58;;;;;;;0.60;0.50;;;;;;;18.83;63.64;98522.41;339496;28;5146;-67
2023/08/02 00:10:10;;;;;;;0.60;0.50;;;;;;;18.84;63.66;98521.47;338192;28;17974;-67
2023/08/02 00:10:23;;;;;;;0.43;0.43;;;;;;;18.86;63.46;98524.81;339666;28;5483;-68
2023/08/02 00:10:36;;;;;;;0.50;0.50;;;;;;;18.86;63.69;98522.19;336759;28;18582;-67
2023/08/02 00:10:48;;;;;;;0.65;0.63;;;;;;;18.87;63.65;98529.09;339862;28;5370;-68
2023/08/02 00:11:02;;;;;;;0.80;0.63;;;;;;;18.87;63.72;98523.81;334574;28;5323;-68
2023/08/02 00:11:16;;;;;;;0.60;0.50;;;;;;;18.90;63.92;98523.59;338331;28;4858;-68
2023/08/02 00:11:28;;;;;;;0.60;0.52;;;;;;;18.90;64.02;98516.50;339376;28;18357;-68
2023/08/02 00:11:40;;;;;;;0.50;0.40;;;;;;;18.89;63.70;98520.09;336947;28;11273;-68
2023/08/02 00:11:52;;;;;;;0.52;0.40;;;;;;;18.89;63.73;98519.25;338609;28;5265;-67
2023/08/02 00:12:04;;;;;;;0.43;0.40;;;;;;;18.88;63.64;98517.63;338391;28;5168;-67
2023/08/02 00:12:16;;;;;;;0.43;0.40;;;;;;;18.90;63.38;98520.94;337400;28;18312;-68
2023/08/02 00:12:29;;;;;;;0.55;0.45;;;;;;;18.92;63.66;98519.84;338936;28;4742;-68
2023/08/02 00:12:41;;;;;;;0.57;0.40;;;;;;;18.93;63.62;98518.03;337029;28;4710;-68
2023/08/02 00:12:53;;;;;;;0.68;0.50;;;;;;;18.94;63.59;98511.81;340480;28;5383;-68
2023/08/02 00:13:04;;;;;;;0.50;0.43;;;;;;;18.94;63.77;98517.09;338903;28;5229;-67
2023/08/02 00:13:17;;;;;;;1.30;0.45;;;;;;;18.95;63.83;98513.47;337109;28;12973;-68
2023/08/02 00:13:30;;;;;;;1.10;0.40;;;;;;;18.96;63.75;98517.78;339605;28;5249;-68
2023/08/02 00:13:42;;;;;;;1.38;0.47;;;;;;;18.95;63.91;98508.22;337023;28;18259;-68
2023/08/02 00:13:54;;;;;;;1.10;0.60;;;;;;;18.99;63.97;98516.69;334879;28;5565;-68
2023/08/02 00:14:06;;;;;;;1.00;0.60;;;;;;;19.00;64.08;98516.56;337811;28;11925;-67
2023/08/02 00:14:18;;;;;;;0.52;0.32;;;;;;;19.01;63.79;98509.50;340253;28;4566;-68
2023/08/02 00:14:30;;;;;;;0.70;0.50;;;;;;;19.01;63.75;98512.13;338979;28;4939;-68
2023/08/02 00:14:42;;;;;;;0.73;0.60;;;;;;;19.02;63.69;98514.63;337097;28;12762;-68
2023/08/02 00:14:54;;;;;;;0.70;0.52;;;;;;;19.01;63.62;98507.69;338610;28;5164;-67
2023/08/02 00:15:06;;;;;;;0.73;0.43;;;;;;;19.03;63.67;98511.00;338605;28;7272;-68
2023/08/02 00:15:19;;;;;;;0.80;0.50;;;;;;;19.03;63.51;98511.00;336116;28;18574;-68
2023/08/02 00:15:31;;;;;;;0.60;0.50;;;;;;;19.04;63.55;98510.06;334025;28;4622;-67
2023/08/02 00:15:44;;;;;;;0.47;0.40;;;;;;;19.05;63.36;98513.53;336920;28;18181;-68
2023/08/02 00:15:56;;;;;;;0.60;0.43;;;;;;;19.06;63.40;98510.78;339535;28;5200;-67
2023/08/02 00:16:09;;;;;;;1.20;0.60;;;;;;;19.05;63.30;98509.09;337460;28;18050;-68
2023/08/02 00:16:21;;;;;;;1.10;0.55;;;;;;;19.05;63.38;98511.72;340431;28;4681;-68
2023/08/02 00:16:33;;;;;;;0.40;0.40;;;;;;;19.04;63.58;98510.06;337370;28;17822;-67
2023/08/02 00:16:46;;;;;;;0.57;0.45;;;;;;;19.00;63.89;98511.28;335576;28;5450;-68
2023/08/02 00:16:58;;;;;;;0.70;0.50;;;;;;;19.00;63.53;98515.75;336254;28;18038;-68
2023/08/02 00:17:10;;;;;;;1.08;0.50;;;;;;;19.01;63.78;98512.94;338968;28;5456;-68
2023/08/02 00:17:22;;;;;;;0.82;0.30;;;;;;;19.04;63.43;98506.59;336008;28;12062;-68
2023/08/02 00:17:34;;;;;;;0.73;0.30;;;;;;;19.04;63.10;98514.50;339348;28;4547;-67
2023/08/02 00:17:48;;;;;;;0.45;0.40;;;;;;;19.04;63.16;98512.69;337359;28;17606;-68
2023/08/02 00:18:00;;;;;;;0.55;0.50;;;;;;;19.04;63.46;98507.44;339047;28;4538;-68
2023/08/02 00:18:13;;;;;;;1.10;0.50;;;;;;;19.04;63.26;98507.44;337519;28;12695;-68
2023/08/02 00:18:25;;;;;;;1.25;0.50;;;;;;;19.03;63.24;98511.00;332525;28;17353;-68
2023/08/02 00:18:37;;;;;;;0.80;0.52;;;;;;;19.05;63.25;98506.44;339485;28;4686;-68
2023/08/02 00:18:49;;;;;;;0.75;0.60;;;;;;;19.07;63.12;98509.78;336247;28;18313;-68
2023/08/02 00:19:02;;;;;;;0.82;0.65;;;;;;;19.08;62.95;98511.47;340054;28;4727;-68
2023/08/02 00:19:14;;;;;;;0.80;0.60;;;;;;;19.10;62.72;98512.16;336517;28;18526;-68
2023/08/02 00:19:27;;;;;;;1.00;0.52;;;;;;;19.10;62.60;98512.16;338781;28;4690;-67
2023/08/02 00:19:39;;;;;;;0.80;0.47;;;;;;;19.11;62.60;98513.00;336594;28;17799;-68
2023/08/02 00:19:51;;;;;;;1.25;0.52;;;;;;;19.08;62.75;98508.84;340119;28;5290;-68
2023/08/02 00:20:03;;;;;;;1.02;0.45;;;;;;;19.06;62.85;98508.13;339742;28;4548;-68
2023/08/02 00:20:15;;;;;;;0.90;0.57;;;;;;;18.98;62.92;98512.41;335721;28;18005;-68
2023/08/02 00:20:27;;;;;;;1.08;0.70;;;;;;;18.93;62.90;98510.13;339375;28;4909;-68
2023/08/02 00:20:40;;;;;;;1.10;0.60;;;;;;;18.93;63.12;98510.13;337379;28;18842;-68
2023/08/02 00:20:52;;;;;;;0.70;0.40;;;;;;;18.92;63.06;98511.13;339763;28;5042;-67
2023/08/02 00:21:03;;;;;;;0.63;0.40;;;;;;;18.91;63.21;98509.44;336282;28;4633;-68
2023/08/02 00:21:15;;;;;;;0.60;0.40;;;;;;;18.89;63.24;98511.38;338195;28;4704;-68
2023/08/02 00:21:28;;;;;;;0.98;0.40;;;;;;;18.89;63.31;98506.94;338747;28;5382;-68
2023/08/02 00:21:40;;;;;;;1.55;0.50;;;;;;;18.91;63.35;98512.06;335145;28;17811;-68
2023/08/02 00:21:52;;;;;;;2.70;0.50;;;;;;;18.92;63.13;98513.75;339920;28;5448;-68
2023/08/02 00:22:04;;;;;;;2.20;0.40;;;;;;;18.94;63.17;98501.28;335902;28;18105;-68
2023/08/02 00:22:16;;;;;;;0.70;0.40;;;;;;;18.94;63.26;98506.56;338810;28;5451;-68
2023/08/02 00:22:28;;;;;;;0.50;0.38;;;;;;;18.94;63.12;98506.56;339216;28;4533;-68
2023/08/02 00:22:40;;;;;;;0.40;0.30;;;;;;;18.94;63.15;98507.38;336193;28;18532;-68
2023/08/02 00:22:52;;;;;;;0.40;0.40;;;;;;;18.95;63.11;98500.31;339780;28;5340;-68
2023/08/02 00:23:05;;;;;;;0.40;0.40;;;;;;;18.94;63.09;98502.13;340122;28;4597;-68
2023/08/02 00:23:17;;;;;;;0.60;0.40;;;;;;;18.95;63.12;98502.94;337158;28;19449;-68
2023/08/02 00:23:29;;;;;;;0.60;0.40;;;;;;;18.94;63.29;98506.56;340242;28;4661;-68
2023/08/02 00:23:41;;;;;;;1.00;0.43;;;;;;;18.93;63.31;98500.47;336960;28;16521;-68
2023/08/02 00:23:53;;;;;;;0.60;0.30;;;;;;;18.94;63.33;98498.66;341254;28;4765;-68
2023/08/02 00:24:05;;;;;;;0.63;0.32;;;;;;;18.93;63.27;98507.50;338534;28;12962;-68
2023/08/02 00:24:17;;;;;;;0.40;0.30;;;;;;;18.92;63.30;98498.78;340665;28;4701;-68
2023/08/02 00:24:29;;;;;;;0.65;0.40;;;;;;;18.90;63.31;98505.16;340210;28;4769;-68
2023/08/02 00:24:41;;;;;;;0.57;0.40;;;;;;;18.86;63.35;98499.31;337293;28;18423;-68
2023/08/02 00:24:53;;;;;;;0.70;0.50;;;;;;;18.81;63.35;98495.38;339938;28;4712;-68
2023/08/02 00:25:05;;;;;;;0.68;0.47;;;;;;;18.76;63.49;98499.22;337693;28;12323;-68
2023/08/02 00:25:17;;;;;;;0.52;0.50;;;;;;;18.79;63.63;98499.91;338788;28;5446;-68
2023/08/02 00:25:29;;;;;;;1.08;0.40;;;;;;;18.80;63.58;98494.56;338903;28;5178;-68
2023/08/02 00:25:41;;;;;;;1.15;0.35;;;;;;;18.79;63.75;98499.91;338313;28;4828;-68
2023/08/02 00:25:53;;;;;;;1.15;0.30;;;;;;;18.79;63.68;98494.66;335618;28;5469;-68
2023/08/02 00:26:05;;;;;;;0.43;0.30;;;;;;;18.81;63.67;98498.03;339925;28;5421;-68
2023/08/02 00:26:17;;;;;;;0.50;0.30;;;;;;;18.78;64.00;98496.47;337020;28;17119;-68
2023/08/02 00:26:29;;;;;;;0.40;0.30;;;;;;;18.77;63.96;98490.38;338330;28;5461;-68
2023/08/02 00:26:41;;;;;;;0.65;0.40;;;;;;;18.79;64.24;98497.28;336671;28;18286;-68
2023/08/02 00:26:53;;;;;;;0.80;0.45;;;;;;;18.76;63.95;98496.59;340539;28;4537;-68
2023/08/02 00:27:05;;;;;;;0.57;0.43;;;;;;;18.79;63.85;98492.03;340848;28;5280;-68
2023/08/02 00:27:17;;;;;;;0.40;0.40;;;;;;;18.81;63.79;98495.38;337815;28;18232;-68
2023/08/02 00:27:29;;;;;;;0.52;0.40;;;;;;;18.81;63.62;98498.03;341175;28;5388;-68
2023/08/02 00:27:41;;;;;;;1.27;0.50;;;;;;;18.83;63.85;98490.81;340064;28;4781;-68
2023/08/02 00:27:54;;;;;;;2.17;0.63;;;;;;;18.81;63.88;98495.38;336972;28;19100;-68
2023/08/02 00:28:06;;;;;;;1.85;0.60;;;;;;;18.80;63.80;98491.94;340030;28;4662;-68
2023/08/02 00:28:18;;;;;;;1.50;0.70;;;;;;;18.83;63.75;98489.03;336328;28;18306;-68
2023/08/02 00:28:30;;;;;;;1.40;0.60;;;;;;;18.85;63.81;98491.53;340129;28;5676;-68
2023/08/02 00:28:42;;;;;;;0.93;0.50;;;;;;;18.86;63.71;98480.06;339499;28;17927;-68
2023/08/02 00:28:54;;;;;;;0.40;0.40;;;;;;;18.87;63.59;98485.16;336745;28;18433;-68
2023/08/02 00:29:06;;;;;;;0.50;0.45;;;;;;;18.89;63.54;98488.50;339841;28;5271;-68
2023/08/02 00:29:18;;;;;;;0.50;0.40;;;;;;;18.92;63.47;98484.78;337040;28;18492;-68
2023/08/02 00:29:30;;;;;;;0.57;0.40;;;;;;;18.93;63.34;98484.66;340038;28;4649;-67
2023/08/02 00:29:42;;;;;;;0.90;0.50;;;;;;;18.93;63.56;98486.44;339899;28;4705;-67
2023/08/02 00:29:54;;;;;;;1.10;0.50;;;;;;;18.94;63.57;98485.50;336668;28;18448;-67
2023/08/02 00:30:07;;;;;;;1.13;0.57;;;;;;;18.95;63.43;98487.13;340058;28;4708;-67
2023/08/02 00:30:19;;;;;;;1.30;0.60;;;;;;;18.93;63.35;98489.06;336199;28;18381;-68
2023/08/02 00:30:44;;;;;;;1.02;0.55;;;;;;;18.92;63.13;98482.16;336112;28;18294;-67
2023/08/02 00:30:57;;;;;;;0.40;0.40;;;;;;;18.93;63.18;98473.28;337441;28;17953;-68
2023/08/02 00:31:09;;;;;;;0.88;0.50;;;;;;;18.92;63.31;98482.16;337370;28;17892;-69
2023/08/02 00:31:21;;;;;;;1.00;0.60;;;;;;;18.89;63.27;98483.22;339897;28;4810;-68
2023/08/02 00:31:33;;;;;;;1.00;0.65;;;;;;;18.88;63.18;98475.50;336590;28;12010;-68
2023/08/02 00:31:45;;;;;;;0.77;0.40;;;;;;;18.85;63.37;98486.25;340133;28;5289;-69
2023/08/02 00:31:57;;;;;;;0.95;0.40;;;;;;;18.83;63.40;98489.03;335604;28;4541;-68
2023/08/02 00:32:09;;;;;;;1.95;0.60;;;;;;;18.84;63.36;98482.81;337708;28;6429;-68
2023/08/02 00:32:21;;;;;;;1.75;0.60;;;;;;;18.85;63.54;98486.25;340304;28;5096;-68
2023/08/02 00:32:33;;;;;;;1.50;0.45;;;;;;;18.86;63.52;98480.06;339614;28;5313;-68
2023/08/02 00:32:48;;;;;;;0.40;0.38;;;;;;;18.86;63.72;98482.69;336814;28;18023;-70
2023/08/02 00:33:01;;;;;;;0.40;0.40;;;;;;;18.87;63.58;98484.34;336254;28;18379;-68
2023/08/02 00:33:13;;;;;;;0.40;0.40;;;;;;;18.89;63.53;98482.41;338330;28;5424;-68
2023/08/02 00:33:25;;;;;;;0.50;0.50;;;;;;;18.91;63.46;98481.34;336264;28;17553;-70
2023/08/02 00:33:37;;;;;;;0.47;0.47;;;;;;;18.92;63.68;98480.34;339377;28;4549;-68
2023/08/02 00:33:49;;;;;;;0.60;0.50;;;;;;;18.93;63.54;98481.19;337236;28;11838;-69
2023/08/02 00:34:01;;;;;;;0.55;0.40;;;;;;;18.92;63.77;98482.97;339946;28;4663;-69
2023/08/02 00:34:13;;;;;;;0.70;0.40;;;;;;;18.94;63.65;98480.22;340158;28;4638;-69
2023/08/02 00:34:26;;;;;;;0.80;0.50;;;;;;;18.94;63.67;98474.97;337322;28;17972;-69
2023/08/02 00:34:38;;;;;;;0.50;0.40;;;;;;;18.95;63.63;98487.13;339408;28;4689;-67
2023/08/02 00:34:54;;;;;;;0.45;0.32;;;;;;;18.96;63.54;98475.66;335945;28;18271;-69
2023/08/02 00:35:07;;;;;;;0.30;0.30;;;;;;;18.96;63.49;98473.84;337754;28;18916;-68
2023/08/02 00:35:19;;;;;;;0.95;0.30;;;;;;;18.99;63.46;98482.44;339999;28;4856;-67
2023/08/02 00:35:31;;;;;;;1.10;0.30;;;;;;;18.99;63.40;98474.56;336472;28;18019;-68
2023/08/02 00:35:44;;;;;;;1.25;0.60;;;;;;;19.00;63.58;98476.25;340322;28;5312;-68
2023/08/02 00:35:56;;;;;;;0.95;0.70;;;;;;;18.99;63.44;98475.38;337428;28;18181;-68
2023/08/02 00:36:08;;;;;;;0.57;0.52;;;;;;;19.01;63.44;98473.44;339986;28;4515;-68
2023/08/02 00:36:20;;;;;;;0.40;0.40;;;;;;;19.00;63.55;98471.78;337455;28;12608;-70
2023/08/02 00:36:33;;;;;;;0.50;0.40;;;;;;;19.00;63.76;98479.69;334502;28;4844;-68
2023/08/02 00:36:46;;;;;;;2.13;0.50;;;;;;;19.00;64.13;98477.06;336894;28;4722;-68
2023/08/02 00:36:58;;;;;;;2.00;0.50;;;;;;;19.00;64.03;98479.69;338549;28;5514;-67
2023/08/02 00:37:10;;;;;;;2.10;0.60;;;;;;;19.00;64.06;98477.06;338715;28;4856;-68
2023/08/02 00:37:22;;;;;;;0.75;0.50;;;;;;;19.01;64.02;98475.25;336175;28;17875;-68
2023/08/02 00:37:34;;;;;;;0.75;0.50;;;;;;;19.02;63.93;98466.41;339800;28;5431;-68
2023/08/02 00:37:46;;;;;;;0.60;0.50;;;;;;;19.04;63.84;98478.47;332127;28;11367;-68
2023/08/02 00:37:58;;;;;;;0.50;0.40;;;;;;;19.05;63.80;98477.47;338672;28;4520;-67
2023/08/02 00:38:11;;;;;;;0.47;0.40;;;;;;;19.07;63.64;98477.34;333551;28;5156;-68
2023/08/02 00:38:23;;;;;;;0.47;0.38;;;;;;;19.07;63.72;98475.53;338672;28;4692;-67
2023/08/02 00:38:35;;;;;;;0.55;0.43;;;;;;;19.08;63.41;98477.22;338365;28;11547;-67
2023/08/02 00:38:47;;;;;;;0.63;0.45;;;;;;;19.04;63.55;98475.81;337862;28;19413;-67
2023/08/02 00:38:59;;;;;;;0.70;0.50;;;;;;;19.06;63.33;98473.91;339758;28;6031;-68
2023/08/02 00:39:11;;;;;;;0.73;0.50;;;;;;;19.07;63.22;98472.91;336726;28;9698;-68
2023/08/02 00:39:23;;;;;;;0.82;0.57;;;;;;;19.07;63.07;98472.91;333836;28;15607;-68
2023/08/02 00:39:35;;;;;;;0.93;0.60;;;;;;;19.08;63.03;98474.59;339084;28;5046;-67
2023/08/02 00:39:52;;;;;;;1.23;0.47;;;;;;;19.05;62.99;98472.22;332740;28;11851;-69
2023/08/02 00:40:04;;;;;;;1.30;0.50;;;;;;;19.05;63.15;98477.47;333743;28;18805;-68
2023/08/02 00:40:17;;;;;;;0.65;0.47;;;;;;;19.06;62.98;98473.91;336150;28;10246;-68
2023/08/02 00:40:28;;;;;;;0.50;0.40;;;;;;;19.05;63.16;98466.94;338719;28;4807;-68
2023/08/02 00:40:41;;;;;;;0.60;0.45;;;;;;;19.07;63.15;98472.09;339051;28;4837;-68
2023/08/02 00:40:53;;;;;;;1.42;0.63;;;;;;;19.08;62.91;98474.59;336736;28;18165;-68
2023/08/02 00:41:06;;;;;;;1.63;0.60;;;;;;;19.05;62.94;98477.47;332987;28;4804;-68
2023/08/02 00:41:18;;;;;;;1.23;0.55;;;;;;;19.04;62.73;98475.00;336219;28;12630;-69
2023/08/02 00:41:30;;;;;;;1.25;0.50;;;;;;;19.03;63.04;98474.16;337942;28;4527;-68
2023/08/02 00:41:42;;;;;;;0.70;0.45;;;;;;;19.01;62.94;98473.44;338970;28;4657;-68
2023/08/02 00:41:55;;;;;;;0.47;0.43;;;;;;;19.02;63.07;98467.22;336064;28;18297;-68
2023/08/02 00:42:07;;;;;;;0.47;0.47;;;;;;;19.03;63.04;98468.88;338823;28;5544;-68
2023/08/02 00:42:19;;;;;;;0.47;0.43;;;;;;;19.04;63.19;98467.94;336199;28;18298;-68
2023/08/02 00:42:31;;;;;;;0.60;0.50;;;;;;;19.05;63.29;98466.94;338806;28;5599;-71
2023/08/02 00:42:43;;;;;;;0.98;0.55;;;;;;;19.05;63.64;98471.38;333746;28;5303;-69
2023/08/02 00:42:55;;;;;;;0.95;0.50;;;;;;;19.06;63.58;98468.63;338532;28;5485;-68
2023/08/02 00:43:07;;;;;;;0.50;0.40;;;;;;;19.07;63.44;98469.47;338968;28;4844;-69
2023/08/02 00:43:20;;;;;;;1.20;0.68;;;;;;;19.08;63.22;98471.97;336890;28;17670;-68
2023/08/02 00:43:46;;;;;;;1.60;0.80;;;;;;;19.09;62.81;98468.34;338598;28;4700;-68
2023/08/02 00:43:58;;;;;;;0.60;0.43;;;;;;;19.08;62.83;98461.44;336189;28;16583;-68
2023/08/02 00:44:10;;;;;;;0.70;0.40;;;;;;;19.09;62.92;98465.72;335880;28;18253;-69
2023/08/02 00:44:22;;;;;;;0.60;0.30;;;;;;;19.07;62.87;98467.66;338848;28;5071;-68
2023/08/02 00:44:34;;;;;;;0.30;0.30;;;;;;;19.09;62.95;98467.53;336004;28;4685;-69
2023/08/02 00:44:46;;;;;;;0.47;0.40;;;;;;;19.06;62.84;98471.25;338370;28;4557;-68
2023/08/02 00:44:58;;;;;;;0.70;0.50;;;;;;;19.07;62.90;98462.38;338355;28;4658;-69
2023/08/02 00:45:10;;;;;;;0.70;0.50;;;;;;;19.07;62.84;98466.81;335928;28;18391;-68
2023/08/02 00:45:22;;;;;;;0.43;0.40;;;;;;;19.05;63.00;98461.69;338002;28;5063;-70
2023/08/02 00:45:36;;;;;;;0.47;0.47;;;;;;;19.05;62.94;98466.13;333273;28;10306;-68
2023/08/02 00:45:48;;;;;;;1.48;0.52;;;;;;;19.05;63.12;98461.69;336347;28;16960;-69
2023/08/02 00:46:00;;;;;;;1.98;0.70;;;;;;;19.06;63.32;98467.81;335940;28;18262;-68
2023/08/02 00:46:14;;;;;;;1.80;0.70;;;;;;;19.05;63.05;98460.84;338821;28;4668;-68
2023/08/02 00:46:28;;;;;;;1.50;0.60;;;;;;;19.03;63.12;98463.63;335956;28;17613;-68
2023/08/02 00:46:41;;;;;;;0.52;0.50;;;;;;;19.01;63.02;98462.91;337162;28;10783;-69
2023/08/02 00:46:53;;;;;;;0.70;0.40;;;;;;;18.99;63.05;98459.56;334382;28;4958;-68
2023/08/02 00:47:05;;;;;;;0.60;0.30;;;;;;;18.98;62.92;98455.28;335838;28;11894;-69
2023/08/02 00:47:19;;;;;;;0.43;0.30;;;;;;;18.98;63.04;98460.56;337155;28;5274;-68
2023/08/02 00:47:32;;;;;;;0.60;0.50;;;;;;;18.99;63.08;98458.75;334613;28;18262;-68
2023/08/02 00:47:45;;;;;;;0.55;0.50;;;;;;;19.03;63.13;98457.53;337779;28;6116;-67
2023/08/02 00:47:59;;;;;;;0.80;0.38;;;;;;;19.03;62.96;98455.72;334819;28;18428;-68
2023/08/02 00:48:11;;;;;;;0.88;0.43;;;;;;;19.01;63.04;98454.19;334437;28;19287;-68
2023/08/02 00:48:23;;;;;;;0.50;0.45;;;;;;;19.00;63.05;98452.53;339591;28;4468;-68
2023/08/02 00:48:35;;;;;;;0.60;0.50;;;;;;;19.01;63.10;98455.00;333624;28;7069;-67
2023/08/02 00:48:48;;;;;;;0.57;0.43;;;;;;;19.00;63.20;98448.09;337998;28;17144;-68
2023/08/02 00:49:00;;;;;;;0.50;0.38;;;;;;;19.00;63.27;98442.81;337211;28;12958;-68
2023/08/02 00:49:13;;;;;;;0.90;0.50;;;;;;;19.00;63.14;98453.34;339508;28;5415;-68
2023/08/02 00:49:25;;;;;;;0.70;0.50;;;;;;;18.99;63.15;98441.16;340004;28;5395;-68
2023/08/02 00:49:37;;;;;;;0.77;0.50;;;;;;;19.00;63.12;98448.09;336726;28;17991;-68
2023/08/02 00:49:49;;;;;;;0.63;0.40;;;;;;;19.00;63.14;98442.81;340206;28;4809;-67
2023/08/02 00:50:02;;;;;;;1.40;0.60;;;;;;;19.00;63.26;98442.81;340428;28;5198;-67
2023/08/02 00:50:14;;;;;;;1.15;0.50;;;;;;;19.00;63.23;98442.81;337086;28;17859;-68
2023/08/02 00:50:29;;;;;;;0.60;0.40;;;;;;;19.01;63.41;98438.38;340376;28;5733;-67
2023/08/02 00:50:41;;;;;;;0.65;0.45;;;;;;;19.02;63.51;98446.16;336816;28;16562;-68
2023/08/02 00:50:54;;;;;;;1.00;0.60;;;;;;;19.00;64.24;98442.00;337575;28;17885;-68
2023/08/02 00:51:15;;;;;;;0.80;0.55;;;;;;;19.01;64.05;98433.94;340106;28;4689;-68
2023/08/02 00:51:30;;;;;;;0.80;0.40;;;;;;;19.01;63.91;98433.94;339022;28;17557;-67
2023/08/02 00:51:42;;;;;;;0.70;0.40;;;;;;;19.02;64.21;98446.16;334010;28;18310;-67
2023/08/02 00:51:55;;;;;;;0.60;0.40;;;;;;;19.02;64.14;98435.63;336470;28;18979;-68
2023/08/02 00:52:07;;;;;;;0.38;0.38;;;;;;;19.03;63.97;98439.91;338630;28;4965;-68
2023/08/02 00:52:20;;;;;;;0.38;0.38;;;;;;;19.03;63.91;98442.53;336817;28;18912;-68
2023/08/02 00:52:32;;;;;;;0.32;0.32;;;;;;;19.04;63.89;98438.13;339641;28;4707;-67
2023/08/02 00:52:44;;;;;;;0.38;0.38;;;;;;;19.04;63.79;98443.41;336484;28;18364;-67
2023/08/02 00:52:56;;;;;;;0.60;0.40;;;;;;;19.04;63.81;98438.97;338709;28;6107;-67
2023/08/02 00:53:08;;;;;;;0.63;0.40;;;;;;;19.05;63.72;98440.59;337168;28;4726;-68
2023/08/02 00:53:21;;;;;;;0.60;0.50;;;;;;;19.05;63.96;98443.25;339685;28;4546;-68
2023/08/02 00:53:34;;;;;;;0.40;0.40;;;;;;;19.05;63.88;98435.34;336478;28;18180;-68
2023/08/02 00:53:47;;;;;;;0.40;0.40;;;;;;;19.06;63.80;98437.03;339508;28;5514;-68
2023/08/02 00:54:02;;;;;;;0.70;0.60;;;;;;;19.05;63.54;98445.88;336198;28;19116;-67
2023/08/02 00:54:14;;;;;;;0.50;0.50;;;;;;;19.01;63.50;98448.91;334603;28;17376;-68
2023/08/02 00:54:28;;;;;;;0.45;0.45;;;;;;;19.01;63.53;98443.66;337581;28;4515;-68
2023/08/02 00:54:41;;;;;;;0.90;0.55;;;;;;;19.00;63.84;98449.91;334591;28;18547;-68
2023/08/02 00:54:54;;;;;;;1.00;0.50;;;;;;;18.98;63.62;98444.75;336003;28;11073;-68
2023/08/02 00:55:06;;;;;;;0.77;0.50;;;;;;;19.00;63.71;98449.91;338683;28;4662;-68
2023/08/02 00:55:18;;;;;;;0.77;0.50;;;;;;;19.00;63.75;98447.28;336365;28;10740;-68
2023/08/02 00:55:31;;;;;;;0.77;0.50;;;;;;;18.99;63.73;98451.69;339133;28;18125;-68
2023/08/02 00:55:43;;;;;;;0.73;0.50;;;;;;;18.99;63.62;98450.84;339767;28;4766;-67
2023/08/02 00:55:56;;;;;;;0.77;0.45;;;;;;;18.99;63.52;98458.75;335642;28;18517;-67
2023/08/02 00:56:09;;;;;;;0.45;0.38;;;;;;;18.99;63.63;98456.94;338792;28;4703;-68
2023/08/02 00:56:21;;;;;;;0.30;0.30;;;;;;;18.98;63.67;98452.66;336047;28;17095;-68
2023/08/02 00:56:33;;;;;;;0.30;0.30;;;;;;;18.99;63.67;98456.13;338232;28;5888;-67
2023/08/02 00:56:46;;;;;;;0.90;0.47;;;;;;;18.99;63.68;98461.38;335468;28;17553;-68
2023/08/02 00:56:58;;;;;;;1.10;0.50;;;;;;;18.98;63.75;98460.56;338663;28;4587;-68
2023/08/02 00:57:20;;;;;;;0.70;0.50;;;;;;;18.95;63.65;98451.13;335964;28;18879;-68
2023/08/02 00:57:36;;;;;;;0.55;0.50;;;;;;;18.99;63.69;98456.13;330495;28;18110;-68
2023/08/02 00:57:50;;;;;;;0.50;0.50;;;;;;;19.00;63.44;98455.16;338486;28;4491;-68
2023/08/02 00:58:02;;;;;;;0.50;0.50;;;;;;;18.99;63.78;98456.13;334602;28;18769;-67
2023/08/02 00:58:18;;;;;;;0.40;0.40;;;;;;;19.00;63.59;98460.44;335300;28;18123;-67
2023/08/02 00:58:30;;;;;;;0.50;0.47;;;;;;;18.99;63.58;98456.94;335791;28;18293;-67
2023/08/02 00:58:47;;;;;;;0.90;0.55;;;;;;;18.99;63.76;98456.13;335427;28;17587;-68
2023/08/02 00:59:01;;;;;;;0.90;0.57;;;;;;;18.98;63.72;98457.94;340215;28;4667;-68
2023/08/02 00:59:13;;;;;;;0.60;0.60;;;;;;;18.98;63.62;98450.03;335969;28;17882;-68
2023/08/02 00:59:25;;;;;;;0.60;0.57;;;;;;;18.99;63.73;98456.94;334985;28;5228;-68
2023/08/02 00:59:40;;;;;;;0.60;0.60;;;;;;;18.99;63.84;98453.47;339457;28;5200;-67
2023/08/02 00:59:52;;;;;;;0.60;0.47;;;;;;;18.99;63.95;98459.56;336275;28;17525;-68
2023/08/02 01:00:04;;;;;;;0.45;0.40;;;;;;;18.99;63.91;98450.84;338537;28;5492;-68
2023/08/02 01:00:17;;;;;;;0.40;0.30;;;;;;;18.99;64.00;98454.31;337230;28;18371;-67
2023/08/02 01:00:29;;;;;;;0.30;0.30;;;;;;;19.00;63.84;98455.16;339240;28;5576;-67
2023/08/02 01:00:41;;;;;;;0.80;0.30;;;;;;;18.98;64.14;98451.84;336583;28;17589;-68